Time;durP1;ratioP1;P1;durP2;ratioP2;P2;SDS_P1;SDS_P2;PMS_P1;PMS_P2;Temp;Humidity;BMP_temperature;BMP_pressure;BME280_temperature;BME280_humidity;BME280_pressure;Samples;Min_cycle;Max_cycle;Signal;HPM_P1;HPM_P2
2021/05/12 00:01:45;;;;;;;;;;;18.70;46.60;;;;;;469401;253;1461;-46
2021/05/12 00:03:47;;;;;;;;;;;18.80;46.10;;;;;;469272;253;1091;-46
2021/05/12 00:05:49;;;;;;;;;;;19.00;45.70;;;;;;469506;253;1072;-46
2021/05/12 00:07:54;;;;;;;;;;;19.10;45.50;;;;;;469519;253;1978;-46
2021/05/12 00:09:55;;;;;;;;;;;19.20;45.10;;;;;;469591;253;1090;-46
2021/05/12 00:11:56;;;;;;;;;;;19.30;45.00;;;;;;469031;254;1367;-46
2021/05/12 00:13:58;;;;;;;;;;;19.30;44.80;;;;;;469425;253;1096;-46
2021/05/12 00:15:59;;;;;;;;;;;19.40;44.60;;;;;;468996;253;1564;-46
2021/05/12 00:18:08;;;;;;;;;;;19.50;44.40;;;;;;469311;253;1115;-46
2021/05/12 00:20:02;;;;;;;;;;;19.60;44.30;;;;;;468855;254;2160;-46
2021/05/12 00:22:14;;;;;;;;;;;19.60;44.20;;;;;;469200;253;1765;-46
2021/05/12 00:24:05;;;;;;;;;;;19.60;44.10;;;;;;468937;254;2267;-46
2021/05/12 00:26:06;;;;;;;;;;;19.70;44.10;;;;;;469534;253;1093;-46
2021/05/12 00:28:09;;;;;;;;;;;19.70;43.90;;;;;;469191;253;1598;-46
2021/05/12 00:30:13;;;;;;;;;;;19.80;43.90;;;;;;469475;253;1332;-46
2021/05/12 00:32:14;;;;;;;;;;;19.80;43.80;;;;;;469467;253;1203;-46
2021/05/12 00:34:15;;;;;;;;;;;19.90;43.80;;;;;;469659;253;1065;-46
2021/05/12 00:36:17;;;;;;;;;;;19.90;43.70;;;;;;469697;253;1144;-46
2021/05/12 00:38:18;;;;;;;;;;;19.90;43.70;;;;;;469696;253;1096;-46
2021/05/12 00:40:21;;;;;;;;;;;19.90;43.60;;;;;;469323;253;2161;-46
2021/05/12 00:42:22;;;;;;;;;;;20.00;43.60;;;;;;469392;253;1195;-46
2021/05/12 00:44:23;;;;;;;;;;;20.00;43.50;;;;;;469505;253;1103;-46
2021/05/12 00:46:24;;;;;;;;;;;20.00;43.40;;;;;;469375;253;1280;-46
2021/05/12 00:48:26;;;;;;;;;;;20.00;43.40;;;;;;469328;253;1058;-46
2021/05/12 00:50:29;;;;;;;;;;;20.10;43.40;;;;;;469599;253;1551;-45
2021/05/12 00:52:28;;;;;;;;;;;20.10;43.20;;;;;;469315;253;2047;-46
2021/05/12 00:54:31;;;;;;;;;;;20.10;43.20;;;;;;469268;253;1118;-46
2021/05/12 00:56:32;;;;;;;;;;;20.10;43.20;;;;;;469206;253;1260;-46
2021/05/12 00:58:33;;;;;;;;;;;20.20;43.20;;;;;;468374;254;1221;-46
2021/05/12 01:00:34;;;;;;;;;;;20.20;43.20;;;;;;469286;253;2196;-46
2021/05/12 01:02:36;;;;;;;;;;;20.20;43.10;;;;;;469068;254;1808;-46
2021/05/12 01:04:38;;;;;;;;;;;20.20;43.10;;;;;;469657;253;1067;-46
2021/05/12 01:06:39;;;;;;;;;;;20.20;43.00;;;;;;469522;254;1473;-46
2021/05/12 01:08:41;;;;;;;;;;;20.30;43.10;;;;;;469555;253;1074;-46
2021/05/12 01:10:43;;;;;;;;;;;20.30;43.00;;;;;;469757;253;1081;-46
2021/05/12 01:12:44;;;;;;;;;;;20.30;43.00;;;;;;469312;253;1098;-46
2021/05/12 01:14:46;;;;;;;;;;;20.30;43.00;;;;;;469264;253;1119;-46
2021/05/12 01:16:47;;;;;;;;;;;20.30;42.90;;;;;;469224;253;1270;-46
2021/05/12 01:18:48;;;;;;;;;;;20.30;42.90;;;;;;469487;253;1073;-46
2021/05/12 01:20:49;;;;;;;;;;;20.40;42.90;;;;;;469377;253;2144;-46
2021/05/12 01:22:51;;;;;;;;;;;20.40;42.90;;;;;;469268;254;1491;-46
2021/05/12 01:24:52;;;;;;;;;;;20.40;42.90;;;;;;469277;253;1067;-46
2021/05/12 01:26:53;;;;;;;;;;;20.40;42.90;;;;;;469513;254;1340;-46
2021/05/12 01:28:57;;;;;;;;;;;20.40;42.80;;;;;;469056;254;1204;-46
2021/05/12 01:31:01;;;;;;;;;;;20.40;42.80;;;;;;469560;253;1214;-46
2021/05/12 01:33:03;;;;;;;;;;;20.50;42.80;;;;;;469738;253;1086;-46
2021/05/12 01:35:04;;;;;;;;;;;20.50;42.80;;;;;;469475;253;1000;-46
2021/05/12 01:37:05;;;;;;;;;;;20.50;42.70;;;;;;469761;253;1207;-46
2021/05/12 01:39:07;;;;;;;;;;;20.50;42.70;;;;;;469248;253;1047;-46
2021/05/12 01:41:08;;;;;;;;;;;20.50;42.70;;;;;;469547;253;2199;-46
2021/05/12 01:43:09;;;;;;;;;;;20.50;42.70;;;;;;469438;254;1061;-46
2021/05/12 01:45:11;;;;;;;;;;;20.50;42.80;;;;;;469430;253;1121;-46
2021/05/12 01:47:12;;;;;;;;;;;20.60;42.70;;;;;;469264;253;1210;-46
2021/05/12 01:49:13;;;;;;;;;;;20.40;42.90;;;;;;469573;253;1233;-46
2021/05/12 01:51:16;;;;;;;;;;;20.00;43.80;;;;;;469395;253;993;-46
2021/05/12 01:53:17;;;;;;;;;;;19.50;45.00;;;;;;469606;253;1109;-46
2021/05/12 01:55:18;;;;;;;;;;;19.20;45.80;;;;;;469709;253;1031;-46
2021/05/12 01:57:20;;;;;;;;;;;19.00;46.20;;;;;;469297;254;1351;-46
2021/05/12 01:59:21;;;;;;;;;;;18.90;46.50;;;;;;469540;253;1083;-46
2021/05/12 02:01:22;;;;;;;;;;;18.80;46.80;;;;;;469316;253;2199;-46
2021/05/12 02:03:23;;;;;;;;;;;18.70;47.10;;;;;;469818;253;1060;-46
2021/05/12 02:05:25;;;;;;;;;;;18.70;47.20;;;;;;469360;253;1375;-46
2021/05/12 02:07:26;;;;;;;;;;;18.60;47.30;;;;;;469217;253;2167;-46
2021/05/12 02:09:28;;;;;;;;;;;18.50;47.50;;;;;;469309;253;1133;-46
2021/05/12 02:11:30;;;;;;;;;;;18.40;47.80;;;;;;469353;253;1088;-46
2021/05/12 02:13:31;;;;;;;;;;;18.40;47.90;;;;;;469298;253;1626;-46
2021/05/12 02:15:32;;;;;;;;;;;18.40;48.00;;;;;;469318;253;2344;-46
2021/05/12 02:17:34;;;;;;;;;;;18.30;48.00;;;;;;469300;253;1236;-46
2021/05/12 02:19:36;;;;;;;;;;;18.30;48.10;;;;;;469466;253;2149;-46
2021/05/12 02:21:37;;;;;;;;;;;18.20;48.20;;;;;;469134;254;1603;-46
2021/05/12 02:23:39;;;;;;;;;;;18.20;48.30;;;;;;469704;253;1063;-45
2021/05/12 02:25:40;;;;;;;;;;;18.20;48.20;;;;;;469796;253;1049;-46
2021/05/12 02:27:42;;;;;;;;;;;18.20;48.30;;;;;;469348;253;1054;-46
2021/05/12 02:29:43;;;;;;;;;;;18.20;48.40;;;;;;469398;253;1067;-46
2021/05/12 02:31:46;;;;;;;;;;;18.10;48.40;;;;;;469432;253;1183;-46
2021/05/12 02:33:47;;;;;;;;;;;18.10;48.50;;;;;;469610;253;1101;-46
2021/05/12 02:35:48;;;;;;;;;;;18.10;48.60;;;;;;469215;253;1050;-46
2021/05/12 02:37:50;;;;;;;;;;;18.00;48.70;;;;;;469472;253;1054;-46
2021/05/12 02:39:51;;;;;;;;;;;18.00;48.70;;;;;;469735;253;2187;-46
2021/05/12 02:41:53;;;;;;;;;;;18.00;48.80;;;;;;469290;253;1116;-46
2021/05/12 02:43:54;;;;;;;;;;;18.00;48.90;;;;;;469737;253;1076;-46
2021/05/12 02:45:56;;;;;;;;;;;17.90;49.00;;;;;;469777;253;1097;-46
2021/05/12 02:47:58;;;;;;;;;;;17.90;49.00;;;;;;469205;254;1360;-46
2021/05/12 02:49:59;;;;;;;;;;;17.90;49.00;;;;;;469372;253;1055;-46
2021/05/12 02:52:00;;;;;;;;;;;17.80;49.10;;;;;;469165;254;1375;-46
2021/05/12 02:54:01;;;;;;;;;;;17.80;49.10;;;;;;469369;253;1174;-46
2021/05/12 02:56:03;;;;;;;;;;;17.90;49.00;;;;;;469563;253;1144;-46
2021/05/12 02:58:05;;;;;;;;;;;17.90;49.00;;;;;;469483;253;1242;-46
2021/05/12 03:00:05;;;;;;;;;;;17.90;48.90;;;;;;469238;254;2256;-46
2021/05/12 03:02:06;;;;;;;;;;;17.90;49.00;;;;;;469497;254;2337;-45
2021/05/12 03:04:08;;;;;;;;;;;17.90;49.10;;;;;;469378;253;1171;-45
2021/05/12 03:06:10;;;;;;;;;;;17.80;49.10;;;;;;469248;254;1447;-46
2021/05/12 03:08:11;;;;;;;;;;;17.80;49.10;;;;;;469197;253;1192;-46
2021/05/12 03:10:12;;;;;;;;;;;17.80;49.00;;;;;;469169;253;1382;-46
2021/05/12 03:12:13;;;;;;;;;;;17.80;49.00;;;;;;469523;253;1276;-46
2021/05/12 03:14:15;;;;;;;;;;;17.90;49.00;;;;;;469405;254;1420;-46
2021/05/12 03:16:16;;;;;;;;;;;17.80;49.10;;;;;;469576;253;1334;-46
2021/05/12 03:18:17;;;;;;;;;;;17.80;49.10;;;;;;469849;253;1068;-46
2021/05/12 03:20:19;;;;;;;;;;;17.80;49.10;;;;;;469612;253;2208;-46
2021/05/12 03:22:20;;;;;;;;;;;17.80;49.20;;;;;;469603;253;1168;-46
2021/05/12 03:24:21;;;;;;;;;;;17.70;49.20;;;;;;469476;253;1059;-46
2021/05/12 03:26:22;;;;;;;;;;;17.80;49.10;;;;;;469436;253;1509;-46
2021/05/12 03:28:24;;;;;;;;;;;17.80;49.00;;;;;;469399;254;1368;-46
2021/05/12 03:30:25;;;;;;;;;;;17.70;49.10;;;;;;469422;253;2520;-46
2021/05/12 03:32:27;;;;;;;;;;;17.70;49.20;;;;;;469281;253;1240;-46
2021/05/12 03:34:32;;;;;;;;;;;17.60;49.30;;;;;;469376;253;1090;-46
2021/05/12 03:36:33;;;;;;;;;;;17.70;49.30;;;;;;469407;253;1257;-46
2021/05/12 03:38:34;;;;;;;;;;;17.70;49.20;;;;;;469431;254;1284;-46
2021/05/12 03:40:36;;;;;;;;;;;17.70;49.30;;;;;;469514;253;2207;-45
2021/05/12 03:42:37;;;;;;;;;;;17.70;49.30;;;;;;469364;253;1281;-46
2021/05/12 03:44:38;;;;;;;;;;;17.70;49.20;;;;;;469807;253;1056;-46
2021/05/12 03:46:39;;;;;;;;;;;17.70;49.30;;;;;;469372;254;1512;-46
2021/05/12 03:48:41;;;;;;;;;;;17.70;49.20;;;;;;469512;253;1202;-46
2021/05/12 03:50:42;;;;;;;;;;;17.70;49.20;;;;;;469284;253;1095;-46
2021/05/12 03:52:43;;;;;;;;;;;17.70;49.30;;;;;;469270;250;1319;-46
2021/05/12 03:54:49;;;;;;;;;;;17.60;49.30;;;;;;469510;253;1370;-46
2021/05/12 03:56:46;;;;;;;;;;;17.60;49.30;;;;;;469416;254;1457;-46
2021/05/12 03:58:47;;;;;;;;;;;17.70;49.30;;;;;;468903;254;1358;-46
2021/05/12 04:00:49;;;;;;;;;;;17.70;49.10;;;;;;469194;253;2152;-46
2021/05/12 04:02:50;;;;;;;;;;;17.70;49.20;;;;;;469578;253;1285;-46
2021/05/12 04:04:52;;;;;;;;;;;17.70;49.20;;;;;;469306;253;1078;-46
2021/05/12 04:06:53;;;;;;;;;;;17.60;49.20;;;;;;469515;253;1336;-45
2021/05/12 04:08:54;;;;;;;;;;;17.60;49.40;;;;;;469227;253;1195;-46
2021/05/12 04:10:55;;;;;;;;;;;17.50;49.40;;;;;;469696;249;1307;-46
2021/05/12 04:12:57;;;;;;;;;;;17.60;49.40;;;;;;469301;253;1328;-46
2021/05/12 04:14:58;;;;;;;;;;;17.60;49.40;;;;;;469429;253;1052;-46
2021/05/12 04:16:59;;;;;;;;;;;17.60;49.50;;;;;;469224;253;1361;-46
2021/05/12 04:19:03;;;;;;;;;;;17.60;49.50;;;;;;469115;254;1802;-46
2021/05/12 04:21:04;;;;;;;;;;;17.50;49.50;;;;;;468826;254;2204;-46
2021/05/12 04:23:06;;;;;;;;;;;17.60;49.50;;;;;;469129;253;1314;-46
2021/05/12 04:25:07;;;;;;;;;;;17.60;49.40;;;;;;469379;253;1123;-46
2021/05/12 04:27:08;;;;;;;;;;;17.60;49.40;;;;;;469162;253;1344;-46
2021/05/12 04:29:09;;;;;;;;;;;17.60;49.40;;;;;;469472;253;1068;-46
2021/05/12 04:31:11;;;;;;;;;;;17.70;49.20;;;;;;469244;253;1086;-46
2021/05/12 04:33:13;;;;;;;;;;;18.10;48.20;;;;;;469263;253;1074;-46
2021/05/12 04:35:16;;;;;;;;;;;18.40;47.30;;;;;;469251;253;2408;-45
2021/05/12 04:37:18;;;;;;;;;;;18.70;46.70;;;;;;469250;254;2375;-46
2021/05/12 04:39:19;;;;;;;;;;;18.90;46.10;;;;;;469322;253;1158;-46
2021/05/12 04:41:20;;;;;;;;;;;19.00;45.70;;;;;;469248;253;2191;-46
2021/05/12 04:43:23;;;;;;;;;;;19.20;45.40;;;;;;469306;253;1228;-46
2021/05/12 04:45:24;;;;;;;;;;;19.30;45.20;;;;;;469154;254;1921;-46
2021/05/12 04:47:25;;;;;;;;;;;19.40;45.00;;;;;;469268;253;1091;-46
2021/05/12 04:49:27;;;;;;;;;;;19.40;44.80;;;;;;469063;253;1428;-46
2021/05/12 04:51:33;;;;;;;;;;;19.50;44.70;;;;;;469138;253;1952;-46
2021/05/12 04:53:30;;;;;;;;;;;19.50;44.60;;;;;;468920;254;1985;-46
2021/05/12 04:55:31;;;;;;;;;;;19.50;44.50;;;;;;469227;253;1160;-46
2021/05/12 04:57:33;;;;;;;;;;;19.60;44.40;;;;;;469473;253;1254;-46
2021/05/12 04:59:34;;;;;;;;;;;19.70;44.30;;;;;;469631;253;1064;-46
2021/05/12 05:01:35;;;;;;;;;;;19.70;44.20;;;;;;469138;253;2191;-46
2021/05/12 05:03:41;;;;;;;;;;;19.70;44.10;;;;;;469088;253;1095;-46
2021/05/12 05:05:38;;;;;;;;;;;19.80;44.10;;;;;;468848;254;2487;-46
2021/05/12 05:07:41;;;;;;;;;;;19.80;44.00;;;;;;469102;253;1302;-46
2021/05/12 05:09:42;;;;;;;;;;;19.80;43.90;;;;;;469163;253;1182;-46
2021/05/12 05:11:46;;;;;;;;;;;19.90;43.90;;;;;;469137;253;1309;-46
2021/05/12 05:13:47;;;;;;;;;;;19.90;43.90;;;;;;469067;253;1395;-46
2021/05/12 05:15:48;;;;;;;;;;;19.90;43.80;;;;;;469106;253;1346;-46
2021/05/12 05:17:50;;;;;;;;;;;20.00;43.70;;;;;;469029;254;1357;-46
2021/05/12 05:19:51;;;;;;;;;;;19.90;43.60;;;;;;469088;253;1263;-46
2021/05/12 05:21:53;;;;;;;;;;;20.00;43.60;;;;;;468866;253;2200;-46
2021/05/12 05:23:55;;;;;;;;;;;20.00;43.60;;;;;;468968;253;1200;-46
2021/05/12 05:25:57;;;;;;;;;;;20.10;43.60;;;;;;469416;249;1371;-46
2021/05/12 05:27:58;;;;;;;;;;;20.10;43.50;;;;;;469009;253;1118;-46
2021/05/12 05:29:59;;;;;;;;;;;20.10;43.50;;;;;;469095;253;1105;-46
2021/05/12 05:32:01;;;;;;;;;;;20.20;43.50;;;;;;469074;253;1082;-46
2021/05/12 05:34:02;;;;;;;;;;;20.20;43.40;;;;;;468938;253;1171;-46
2021/05/12 05:36:03;;;;;;;;;;;20.20;43.40;;;;;;468924;253;1082;-46
2021/05/12 05:38:05;;;;;;;;;;;20.20;43.30;;;;;;468729;254;2034;-46
2021/05/12 05:40:06;;;;;;;;;;;20.20;43.30;;;;;;468919;253;1196;-46
2021/05/12 05:42:07;;;;;;;;;;;20.30;43.30;;;;;;468900;253;2203;-46
2021/05/12 05:44:08;;;;;;;;;;;20.30;43.30;;;;;;468992;253;1335;-46
2021/05/12 05:46:10;;;;;;;;;;;20.30;43.20;;;;;;468916;253;1112;-46
2021/05/12 05:48:11;;;;;;;;;;;20.30;43.20;;;;;;469000;253;1119;-46
2021/05/12 05:50:14;;;;;;;;;;;20.30;43.20;;;;;;468850;253;1078;-46
2021/05/12 05:52:14;;;;;;;;;;;20.30;43.10;;;;;;469163;253;2070;-46
2021/05/12 05:54:18;;;;;;;;;;;20.40;43.10;;;;;;468918;253;1199;-46
2021/05/12 05:56:20;;;;;;;;;;;20.40;43.10;;;;;;468910;253;1082;-44
2021/05/12 05:58:21;;;;;;;;;;;20.40;43.10;;;;;;468904;253;1115;-44
2021/05/12 06:00:25;;;;;;;;;;;20.40;43.00;;;;;;468804;253;1249;-44
2021/05/12 06:02:26;;;;;;;;;;;20.50;43.10;;;;;;468968;253;2203;-44
2021/05/12 06:04:27;;;;;;;;;;;20.50;43.00;;;;;;468490;254;1546;-44
2021/05/12 06:06:31;;;;;;;;;;;20.50;43.00;;;;;;468754;253;1440;-44
2021/05/12 06:08:32;;;;;;;;;;;20.50;42.90;;;;;;468833;253;1128;-44
2021/05/12 06:10:33;;;;;;;;;;;20.50;42.90;;;;;;468881;253;1200;-44
2021/05/12 06:12:37;;;;;;;;;;;20.50;42.90;;;;;;468916;253;1268;-46
2021/05/12 06:14:40;;;;;;;;;;;20.50;43.00;;;;;;468984;253;1147;-46
2021/05/12 06:16:42;;;;;;;;;;;20.50;42.80;;;;;;469083;253;1329;-46
2021/05/12 06:18:44;;;;;;;;;;;20.40;43.30;;;;;;468815;253;1081;-46
2021/05/12 06:20:45;;;;;;;;;;;19.90;44.40;;;;;;468740;253;2169;-46
2021/05/12 06:22:46;;;;;;;;;;;19.50;45.40;;;;;;468886;253;2199;-46
2021/05/12 06:24:47;;;;;;;;;;;19.20;46.10;;;;;;468729;253;1284;-46
2021/05/12 06:26:50;;;;;;;;;;;19.00;46.70;;;;;;468668;253;1306;-46
2021/05/12 06:28:51;;;;;;;;;;;18.80;47.10;;;;;;468786;254;1870;-46
2021/05/12 06:30:52;;;;;;;;;;;18.70;47.40;;;;;;468804;253;1272;-46
2021/05/12 06:32:54;;;;;;;;;;;18.70;47.60;;;;;;469021;253;1318;-46
2021/05/12 06:34:55;;;;;;;;;;;18.60;47.80;;;;;;468686;253;2137;-46
2021/05/12 06:36:56;;;;;;;;;;;18.50;48.00;;;;;;468754;253;1214;-46
2021/05/12 06:38:57;;;;;;;;;;;18.40;48.10;;;;;;468971;254;1360;-46
2021/05/12 06:40:59;;;;;;;;;;;18.40;48.30;;;;;;468845;253;1184;-46
2021/05/12 06:43:00;;;;;;;;;;;18.30;48.30;;;;;;468879;253;2207;-46
2021/05/12 06:45:01;;;;;;;;;;;18.30;48.50;;;;;;468850;253;1557;-45
2021/05/12 06:47:03;;;;;;;;;;;18.20;48.70;;;;;;468779;250;1949;-46
2021/05/12 06:49:04;;;;;;;;;;;18.20;48.80;;;;;;468837;253;1333;-46
2021/05/12 06:51:05;;;;;;;;;;;18.20;48.80;;;;;;468767;253;1333;-46
2021/05/12 06:53:06;;;;;;;;;;;18.10;48.80;;;;;;468760;253;1123;-46
2021/05/12 06:55:08;;;;;;;;;;;18.10;48.90;;;;;;468531;253;1182;-45
2021/05/12 06:57:09;;;;;;;;;;;18.10;48.90;;;;;;468580;253;1269;-46
2021/05/12 06:59:10;;;;;;;;;;;18.00;49.10;;;;;;468669;253;1225;-46
2021/05/12 07:01:13;;;;;;;;;;;18.00;49.10;;;;;;469093;253;2145;-46
2021/05/12 07:03:14;;;;;;;;;;;18.10;49.00;;;;;;468916;253;1178;-46
2021/05/12 07:05:17;;;;;;;;;;;18.00;49.00;;;;;;468717;254;1519;-46
2021/05/12 07:07:17;;;;;;;;;;;18.00;49.10;;;;;;468576;253;2248;-46
2021/05/12 07:09:18;;;;;;;;;;;17.90;49.30;;;;;;468594;253;1374;-44
2021/05/12 07:11:21;;;;;;;;;;;17.90;49.30;;;;;;468609;253;1242;-46
2021/05/12 07:13:21;;;;;;;;;;;17.90;49.40;;;;;;468896;254;1389;-46
2021/05/12 07:15:22;;;;;;;;;;;17.80;49.60;;;;;;468766;253;1834;-46
2021/05/12 07:17:24;;;;;;;;;;;17.80;49.60;;;;;;468655;253;1262;-46
2021/05/12 07:19:25;;;;;;;;;;;17.80;49.60;;;;;;468561;253;1209;-46
2021/05/12 07:21:26;;;;;;;;;;;17.90;49.40;;;;;;468991;253;2160;-46
2021/05/12 07:23:28;;;;;;;;;;;17.90;49.40;;;;;;468873;253;1117;-46
2021/05/12 07:25:29;;;;;;;;;;;17.90;49.50;;;;;;468794;254;1808;-46
2021/05/12 07:27:30;;;;;;;;;;;17.80;49.50;;;;;;468639;253;1262;-46
2021/05/12 07:29:31;;;;;;;;;;;17.80;49.60;;;;;;468629;253;1479;-46
2021/05/12 07:31:33;;;;;;;;;;;17.80;49.50;;;;;;468956;253;1484;-46
2021/05/12 07:33:34;;;;;;;;;;;17.80;49.60;;;;;;468687;253;1220;-46
2021/05/12 07:35:35;;;;;;;;;;;17.70;49.60;;;;;;468796;253;1281;-46
2021/05/12 07:37:37;;;;;;;;;;;17.80;49.60;;;;;;468639;253;1174;-46
2021/05/12 07:39:38;;;;;;;;;;;17.70;49.70;;;;;;468548;253;1252;-45
2021/05/12 07:41:39;;;;;;;;;;;17.70;49.80;;;;;;468837;253;2204;-46
2021/05/12 07:43:40;;;;;;;;;;;17.70;49.80;;;;;;468574;253;1229;-46
2021/05/12 07:45:42;;;;;;;;;;;17.70;49.90;;;;;;468643;253;1171;-46
2021/05/12 07:47:43;;;;;;;;;;;17.70;49.70;;;;;;468588;253;1157;-46
2021/05/12 07:49:44;;;;;;;;;;;17.70;49.70;;;;;;468824;253;1178;-46
2021/05/12 07:51:46;;;;;;;;;;;17.70;49.70;;;;;;468687;253;1169;-46
2021/05/12 07:53:47;;;;;;;;;;;17.70;49.70;;;;;;468539;253;1247;-46
2021/05/12 07:55:48;;;;;;;;;;;17.60;49.80;;;;;;468712;253;1202;-46
2021/05/12 07:57:50;;;;;;;;;;;17.60;49.90;;;;;;468567;253;1167;-45
2021/05/12 07:59:51;;;;;;;;;;;17.70;50.00;;;;;;468472;253;1103;-46
2021/05/12 08:01:52;;;;;;;;;;;17.60;49.90;;;;;;468310;253;2145;-45
2021/05/12 08:03:53;;;;;;;;;;;17.60;49.90;;;;;;468379;253;1150;-46
2021/05/12 08:05:55;;;;;;;;;;;17.60;49.90;;;;;;468311;253;1304;-46
2021/05/12 08:07:56;;;;;;;;;;;17.60;49.90;;;;;;468434;253;1378;-46
2021/05/12 08:09:57;;;;;;;;;;;17.60;49.90;;;;;;468469;253;1148;-46
2021/05/12 08:11:59;;;;;;;;;;;17.60;50.00;;;;;;468637;253;1544;-46
2021/05/12 08:14:00;;;;;;;;;;;17.60;50.00;;;;;;469320;253;1173;-46
2021/05/12 08:16:01;;;;;;;;;;;17.60;49.80;;;;;;468710;253;1318;-46
2021/05/12 08:18:02;;;;;;;;;;;17.60;50.00;;;;;;469020;253;1161;-46
2021/05/12 08:20:04;;;;;;;;;;;17.60;50.00;;;;;;468742;253;1305;-46
2021/05/12 08:22:05;;;;;;;;;;;17.60;50.00;;;;;;469305;253;2196;-46
2021/05/12 08:24:06;;;;;;;;;;;17.60;49.90;;;;;;468405;253;1219;-46
2021/05/12 08:26:10;;;;;;;;;;;17.60;50.00;;;;;;468276;253;1360;-46
2021/05/12 08:28:09;;;;;;;;;;;17.60;49.90;;;;;;468578;253;1645;-46
2021/05/12 08:30:11;;;;;;;;;;;17.60;49.80;;;;;;469133;253;1053;-46
2021/05/12 08:32:14;;;;;;;;;;;17.60;49.90;;;;;;468727;253;1268;-46
2021/05/12 08:34:13;;;;;;;;;;;17.50;50.00;;;;;;468776;254;2111;-46
2021/05/12 08:36:14;;;;;;;;;;;17.50;50.10;;;;;;468584;253;1195;-46
2021/05/12 08:38:16;;;;;;;;;;;17.50;50.20;;;;;;468412;254;1655;-45
2021/05/12 08:40:17;;;;;;;;;;;17.50;50.20;;;;;;468618;253;1375;-46
2021/05/12 08:42:18;;;;;;;;;;;17.50;50.30;;;;;;468470;253;2196;-46
2021/05/12 08:44:20;;;;;;;;;;;17.50;50.30;;;;;;468380;253;1195;-46
2021/05/12 08:46:21;;;;;;;;;;;17.50;50.10;;;;;;468489;253;1357;-46
2021/05/12 08:48:23;;;;;;;;;;;17.60;50.00;;;;;;468889;253;1211;-46
2021/05/12 08:50:24;;;;;;;;;;;17.50;50.00;;;;;;468563;253;2068;-46
2021/05/12 08:52:25;;;;;;;;;;;17.60;49.80;;;;;;467854;253;1199;-46
2021/05/12 08:54:26;;;;;;;;;;;17.60;49.80;;;;;;468500;253;1232;-46
2021/05/12 08:56:27;;;;;;;;;;;17.60;49.80;;;;;;468220;253;1265;-46
2021/05/12 08:58:29;;;;;;;;;;;17.60;49.80;;;;;;468485;253;1497;-46
2021/05/12 09:00:30;;;;;;;;;;;17.60;49.90;;;;;;468671;253;1108;-46
2021/05/12 09:02:32;;;;;;;;;;;17.50;50.10;;;;;;468972;253;2200;-45
2021/05/12 09:04:33;;;;;;;;;;;17.40;50.20;;;;;;468377;253;1134;-46
2021/05/12 09:06:34;;;;;;;;;;;17.50;50.30;;;;;;468509;253;1239;-45
2021/05/12 09:08:36;;;;;;;;;;;17.40;50.20;;;;;;468617;253;1136;-46
2021/05/12 09:10:37;;;;;;;;;;;17.40;50.20;;;;;;468746;253;1276;-46
2021/05/12 09:12:38;;;;;;;;;;;17.40;50.20;;;;;;468823;253;1078;-46
2021/05/12 09:14:40;;;;;;;;;;;17.50;50.20;;;;;;469300;253;1003;-46
2021/05/12 09:16:41;;;;;;;;;;;17.40;50.10;;;;;;468613;253;1161;-46
2021/05/12 09:18:42;;;;;;;;;;;17.50;50.20;;;;;;468667;253;1124;-46
2021/05/12 09:20:45;;;;;;;;;;;17.50;50.10;;;;;;468472;253;1261;-46
2021/05/12 09:22:45;;;;;;;;;;;17.50;50.00;;;;;;468507;254;2196;-46
2021/05/12 09:24:46;;;;;;;;;;;17.80;49.40;;;;;;468348;253;1343;-45
2021/05/12 09:26:47;;;;;;;;;;;18.20;48.20;;;;;;468353;253;1160;-46
2021/05/12 09:28:49;;;;;;;;;;;18.50;47.50;;;;;;468133;254;1450;-46
2021/05/12 09:30:50;;;;;;;;;;;18.80;46.90;;;;;;468320;253;1247;-46
2021/05/12 09:32:51;;;;;;;;;;;18.90;46.40;;;;;;468664;253;1315;-46
2021/05/12 09:34:54;;;;;;;;;;;19.10;46.20;;;;;;468678;253;1194;-46
2021/05/12 09:36:54;;;;;;;;;;;19.20;45.90;;;;;;468475;253;1438;-46
2021/05/12 09:38:56;;;;;;;;;;;19.20;45.70;;;;;;468698;253;1209;-46
2021/05/12 09:40:57;;;;;;;;;;;19.30;45.60;;;;;;468582;253;1368;-46
2021/05/12 09:43:00;;;;;;;;;;;19.30;45.40;;;;;;468801;253;2208;-46
2021/05/12 09:45:00;;;;;;;;;;;19.40;45.20;;;;;;468705;253;2262;-46
2021/05/12 09:47:02;;;;;;;;;;;19.50;45.20;;;;;;468454;254;1315;-46
2021/05/12 09:49:03;;;;;;;;;;;19.50;45.00;;;;;;468660;253;1170;-46
2021/05/12 09:51:04;;;;;;;;;;;19.60;45.00;;;;;;468565;253;1353;-46
2021/05/12 09:53:07;;;;;;;;;;;19.60;44.90;;;;;;469171;253;1075;-46
2021/05/12 09:55:07;;;;;;;;;;;19.60;44.80;;;;;;468502;249;2442;-46
2021/05/12 09:57:08;;;;;;;;;;;19.70;44.70;;;;;;468601;253;1220;-46
2021/05/12 09:59:10;;;;;;;;;;;19.70;44.60;;;;;;468700;253;1348;-46
2021/05/12 10:01:11;;;;;;;;;;;19.80;44.60;;;;;;468901;253;1168;-46
2021/05/12 10:03:12;;;;;;;;;;;19.80;44.50;;;;;;468732;253;2217;-46
2021/05/12 10:05:13;;;;;;;;;;;19.80;44.50;;;;;;468620;253;1149;-46
2021/05/12 10:07:15;;;;;;;;;;;19.90;44.40;;;;;;468668;253;1291;-46
2021/05/12 10:09:16;;;;;;;;;;;19.90;44.30;;;;;;469110;253;1184;-46
2021/05/12 10:11:19;;;;;;;;;;;19.90;44.20;;;;;;468708;253;1150;-46
2021/05/12 10:13:18;;;;;;;;;;;19.90;44.20;;;;;;468416;254;2568;-46
2021/05/12 10:15:20;;;;;;;;;;;20.00;44.20;;;;;;468253;254;1214;-46
2021/05/12 10:17:21;;;;;;;;;;;20.00;44.20;;;;;;468777;253;1697;-44
2021/05/12 10:19:23;;;;;;;;;;;20.00;44.10;;;;;;469078;253;1024;-46
2021/05/12 10:21:24;;;;;;;;;;;20.00;44.10;;;;;;469082;253;867;-46
2021/05/12 10:23:25;;;;;;;;;;;20.10;44.10;;;;;;468758;253;2215;-46
2021/05/12 10:25:27;;;;;;;;;;;20.10;44.00;;;;;;469039;253;878;-46
2021/05/12 10:27:28;;;;;;;;;;;20.10;44.00;;;;;;468546;252;1151;-46
2021/05/12 10:29:29;;;;;;;;;;;20.10;43.90;;;;;;468801;253;1309;-46
2021/05/12 10:31:31;;;;;;;;;;;20.20;43.90;;;;;;468827;253;1133;-46
2021/05/12 10:33:32;;;;;;;;;;;20.20;43.90;;;;;;469301;253;893;-46
2021/05/12 10:35:34;;;;;;;;;;;20.20;43.80;;;;;;469242;253;909;-46
2021/05/12 10:37:36;;;;;;;;;;;20.20;43.80;;;;;;468652;253;1515;-46
2021/05/12 10:39:37;;;;;;;;;;;20.20;43.80;;;;;;468809;253;1130;-46
2021/05/12 10:41:38;;;;;;;;;;;20.30;43.80;;;;;;468317;254;1344;-46
2021/05/12 10:43:43;;;;;;;;;;;20.30;43.80;;;;;;468593;253;2207;-45
2021/05/12 10:45:43;;;;;;;;;;;20.30;43.70;;;;;;468297;254;2126;-46
2021/05/12 10:47:42;;;;;;;;;;;20.30;43.70;;;;;;468251;254;2308;-46
2021/05/12 10:49:44;;;;;;;;;;;20.30;43.70;;;;;;468975;253;1053;-46
2021/05/12 10:51:45;;;;;;;;;;;20.30;43.70;;;;;;469204;253;929;-46
2021/05/12 10:53:46;;;;;;;;;;;20.30;43.70;;;;;;469172;253;1349;-46
2021/05/12 10:55:47;;;;;;;;;;;20.30;43.70;;;;;;469038;253;875;-45
2021/05/12 10:57:49;;;;;;;;;;;20.40;43.70;;;;;;468946;253;1237;-46
2021/05/12 10:59:50;;;;;;;;;;;20.40;43.70;;;;;;468729;253;1162;-46
2021/05/12 11:01:51;;;;;;;;;;;20.40;43.70;;;;;;469196;253;906;-46
2021/05/12 11:03:53;;;;;;;;;;;20.30;43.60;;;;;;468955;253;2203;-46
2021/05/12 11:05:54;;;;;;;;;;;20.50;43.50;;;;;;469254;253;1079;-46
2021/05/12 11:07:55;;;;;;;;;;;20.50;43.50;;;;;;469103;254;1394;-46
2021/05/12 11:09:56;;;;;;;;;;;20.00;44.50;;;;;;469170;253;1125;-46
2021/05/12 11:11:58;;;;;;;;;;;19.50;45.60;;;;;;468722;253;1336;-46
2021/05/12 11:13:59;;;;;;;;;;;19.20;46.50;;;;;;468485;253;1182;-46
2021/05/12 11:16:00;;;;;;;;;;;19.00;47.10;;;;;;468299;253;1205;-46
2021/05/12 11:18:01;;;;;;;;;;;18.80;47.50;;;;;;468804;253;1209;-46
2021/05/12 11:20:04;;;;;;;;;;;18.70;47.80;;;;;;469283;253;1010;-46
2021/05/12 11:22:04;;;;;;;;;;;18.60;48.10;;;;;;469033;254;2259;-46
2021/05/12 11:24:06;;;;;;;;;;;18.50;48.30;;;;;;469284;253;2203;-46
2021/05/12 11:26:07;;;;;;;;;;;18.40;48.60;;;;;;468820;253;2266;-46
2021/05/12 11:28:19;;;;;;;;;;;18.40;48.70;;;;;;468724;253;1095;-46
2021/05/12 11:32:32;;;;;;;;;;;18.20;49.10;;;;;;468633;254;993;-46
2021/05/12 11:34:34;;;;;;;;;;;18.20;49.10;;;;;;468691;253;919;-46
2021/05/12 11:36:39;;;;;;;;;;;18.10;49.20;;;;;;468750;253;1174;-46
2021/05/12 11:38:36;;;;;;;;;;;18.10;49.30;;;;;;468564;254;1339;-46
2021/05/12 11:40:37;;;;;;;;;;;18.10;49.30;;;;;;469533;249;1145;-46
2021/05/12 11:42:39;;;;;;;;;;;18.10;49.40;;;;;;469166;253;1097;-46
2021/05/12 11:44:40;;;;;;;;;;;18.00;49.40;;;;;;468836;253;2191;-46
2021/05/12 11:46:42;;;;;;;;;;;18.00;49.60;;;;;;468736;253;1166;-46
2021/05/12 11:48:43;;;;;;;;;;;18.00;49.70;;;;;;468994;253;1143;-46
2021/05/12 11:50:45;;;;;;;;;;;18.00;49.50;;;;;;469270;253;1120;-46
2021/05/12 11:52:46;;;;;;;;;;;18.00;49.60;;;;;;468943;253;1270;-46
2021/05/12 11:54:47;;;;;;;;;;;18.00;49.60;;;;;;468863;253;904;-46
2021/05/12 11:56:49;;;;;;;;;;;18.00;49.50;;;;;;468783;253;1147;-46
2021/05/12 11:58:52;;;;;;;;;;;18.00;49.50;;;;;;469279;253;1180;-46
2021/05/12 12:00:56;;;;;;;;;;;17.90;49.60;;;;;;469384;253;1064;-46